createdAt,value
2019-03-09T00:01:24.853Z,99344.78
2019-03-09T00:03:59.082Z,99349.47
2019-03-09T00:06:33.284Z,99343.42
2019-03-09T00:09:09.316Z,99345.25
2019-03-09T00:11:45.186Z,99341.67
2019-03-09T00:14:19.795Z,99345.84
2019-03-09T00:16:53.936Z,99352.97
2019-03-09T00:19:28.548Z,99352.12
2019-03-09T00:22:03.163Z,99352.36
2019-03-09T00:24:47.037Z,99354.03
2019-03-09T00:27:30.078Z,99357.46
2019-03-09T00:30:14.677Z,99358.28
2019-03-09T00:32:48.864Z,99362.61
2019-03-09T00:35:23.078Z,99359.30
2019-03-09T00:37:57.274Z,99367.84
2019-03-09T00:40:31.665Z,99372.55
2019-03-09T00:43:06.037Z,99377.94
2019-03-09T00:45:40.153Z,99382.27
2019-03-09T00:48:14.615Z,99389.09
2019-03-09T00:50:49.129Z,99405.70
2019-03-09T00:53:24.139Z,99402.66
2019-03-09T00:55:58.375Z,99400.48
2019-03-09T00:58:33.643Z,99391.75
2019-03-09T01:01:07.942Z,99395.06
2019-03-09T01:03:43.008Z,99396.58
2019-03-09T01:06:17.177Z,99389.55
2019-03-09T01:08:51.319Z,99395.77
2019-03-09T01:11:26.589Z,99397.44
2019-03-09T01:14:00.786Z,99407.81
2019-03-09T01:16:35.057Z,99421.46
2019-03-09T01:19:08.987Z,99415.41
2019-03-09T01:21:44.289Z,99424.66
2019-03-09T01:24:18.241Z,99424.66
2019-03-09T01:26:53.468Z,99443.17
2019-03-09T01:29:27.721Z,99437.09
2019-03-09T01:32:01.762Z,99440.13
2019-03-09T01:34:35.915Z,99438.00
2019-03-09T01:37:11.076Z,99445.91
2019-03-09T01:39:45.214Z,99455.14
2019-03-09T01:42:19.555Z,99453.16
2019-03-09T01:44:53.829Z,99458.57
2019-03-09T01:47:28.251Z,99455.67
2019-03-09T01:50:02.535Z,99453.77
2019-03-09T01:52:37.763Z,99457.63
2019-03-09T01:55:12.642Z,99470.23
2019-03-09T01:57:47.029Z,99479.23
2019-03-09T02:00:21.749Z,99486.02
2019-03-09T02:02:55.833Z,99494.80
2019-03-09T02:05:30.196Z,99487.38
2019-03-09T02:08:04.415Z,99484.11
2019-03-09T02:10:38.837Z,99479.19
2019-03-09T02:13:13.076Z,99482.97
2019-03-09T02:15:47.552Z,99496.78
2019-03-09T02:18:21.768Z,99496.61
2019-03-09T02:20:55.945Z,99503.36
2019-03-09T02:23:30.291Z,99508.50
2019-03-09T02:26:04.558Z,99512.54
2019-03-09T02:28:38.853Z,99507.91
2019-03-09T02:31:13.085Z,99516.91
2019-03-09T02:33:48.663Z,99520.50
2019-03-09T02:36:23.096Z,99522.38
2019-03-09T02:39:14.721Z,99518.28
2019-03-09T02:41:49.153Z,99534.38
2019-03-09T02:44:23.682Z,99528.37
2019-03-09T02:46:58.859Z,99528.91
2019-03-09T02:49:34.107Z,99531.02
2019-03-09T02:52:08.351Z,99536.16
2019-03-09T02:54:42.757Z,99535.42
2019-03-09T02:57:17.856Z,99548.44
2019-03-09T02:59:52.209Z,99547.62
2019-03-09T03:02:34.160Z,99552.77
2019-03-09T03:05:08.857Z,99552.02
2019-03-09T03:07:43.351Z,99549.52
2019-03-09T03:10:18.151Z,99557.08
2019-03-09T03:12:53.609Z,99546.48
2019-03-09T03:15:46.158Z,99555.49
2019-03-09T03:18:21.388Z,99556.80
2019-03-09T03:20:55.811Z,99554.89
2019-03-09T03:23:31.051Z,99558.67
2019-03-09T03:26:05.235Z,99554.58
2019-03-09T03:28:39.284Z,99556.17
2019-03-09T03:31:13.434Z,99564.05
2019-03-09T03:33:47.712Z,99570.58
2019-03-09T03:36:21.926Z,99576.27
2019-03-09T03:38:56.190Z,99579.41
2019-03-09T03:41:30.338Z,99574.45
2019-03-09T03:44:04.482Z,99575.98
2019-03-09T03:46:38.760Z,99578.84
2019-03-09T03:49:13.139Z,99574.86
2019-03-09T03:51:47.225Z,99585.67
2019-03-09T03:54:21.458Z,99588.63
2019-03-09T03:56:55.750Z,99586.44
2019-03-09T03:59:30.231Z,99582.86
2019-03-09T04:02:06.613Z,99584.45
2019-03-09T04:04:41.011Z,99592.62
2019-03-09T04:07:15.516Z,99598.63
2019-03-09T04:09:49.817Z,99600.20
2019-03-09T04:12:24.143Z,99589.52
2019-03-09T04:14:58.613Z,99591.17
2019-03-09T04:17:33.134Z,99592.25
2019-03-09T04:20:07.650Z,99593.61
2019-03-09T04:22:41.945Z,99593.61
2019-03-09T04:25:16.410Z,99590.57
2019-03-09T04:27:51.284Z,99592.44
2019-03-09T04:30:25.607Z,99590.03
2019-03-09T04:32:59.753Z,99592.38
2019-03-09T04:35:33.885Z,99591.52
2019-03-09T04:38:08.157Z,99593.42
2019-03-09T04:40:42.111Z,99592.60
2019-03-09T04:43:16.375Z,99584.93
2019-03-09T04:45:50.334Z,99582.20
2019-03-09T04:48:24.391Z,99581.70
2019-03-09T04:50:58.669Z,99583.56
2019-03-09T04:53:33.021Z,99581.37
2019-03-09T04:56:07.028Z,99581.89
2019-03-09T04:58:41.286Z,99581.60
2019-03-09T05:01:15.438Z,99576.66
2019-03-09T05:03:58.475Z,99572.06
2019-03-09T05:06:32.726Z,99572.28
2019-03-09T05:09:29.379Z,99575.92
2019-03-09T05:12:04.027Z,99571.39
2019-03-09T05:14:38.340Z,99570.36
2019-03-09T05:17:12.380Z,99573.95
2019-03-09T05:19:46.548Z,99567.13
2019-03-09T05:22:20.759Z,99570.99
2019-03-09T05:24:54.981Z,99571.68
2019-03-09T05:27:29.152Z,99573.59
2019-03-09T05:30:03.135Z,99576.83
2019-03-09T05:32:37.412Z,99574.19
2019-03-09T05:35:12.615Z,99571.68
2019-03-09T05:37:46.644Z,99579.64
2019-03-09T05:40:20.903Z,99573.67
2019-03-09T05:42:55.422Z,99572.31
2019-03-09T05:45:29.917Z,99561.40
2019-03-09T05:48:04.229Z,99571.77
2019-03-09T05:50:38.306Z,99572.59
2019-03-09T05:53:14.908Z,99572.18
2019-03-09T05:55:50.344Z,99563.41
2019-03-09T05:58:24.439Z,99561.89
2019-03-09T06:00:58.539Z,99555.21
2019-03-09T06:03:32.866Z,99545.58
2019-03-09T06:06:17.845Z,99554.48
2019-03-09T06:08:53.233Z,99553.34
2019-03-09T06:11:27.141Z,99553.89
2019-03-09T06:14:01.487Z,99547.30
2019-03-09T06:16:35.667Z,99547.52
2019-03-09T06:19:09.902Z,99546.44
2019-03-09T06:21:44.310Z,99547.80
2019-03-09T06:24:18.621Z,99542.89
2019-03-09T06:26:53.915Z,99540.98
2019-03-09T06:29:28.375Z,99537.13
2019-03-09T06:32:36.624Z,99535.48
2019-03-09T06:35:10.944Z,99536.08
2019-03-09T06:37:46.646Z,99520.77
2019-03-09T06:40:21.903Z,99527.58
2019-03-09T06:42:56.182Z,99528.12
2019-03-09T06:45:30.484Z,99519.63
2019-03-09T06:48:04.866Z,99522.89
2019-03-09T06:50:38.985Z,99520.70
2019-03-09T06:53:13.479Z,99516.61
2019-03-09T06:55:48.889Z,99509.80
2019-03-09T06:58:24.165Z,99507.80
2019-03-09T07:00:58.294Z,99503.27
2019-03-09T07:03:32.584Z,99500.97
2019-03-09T07:06:07.017Z,99493.24
2019-03-09T07:08:41.613Z,99491.97
2019-03-09T07:11:16.925Z,99489.23
2019-03-09T07:13:53.178Z,99486.80
2019-03-09T07:16:27.007Z,99478.41
2019-03-09T07:19:01.627Z,99478.09
2019-03-09T07:21:37.102Z,99479.32
2019-03-09T07:24:11.249Z,99472.05
2019-03-09T07:26:45.636Z,99465.77
2019-03-09T07:29:20.109Z,99457.63
2019-03-09T07:31:54.364Z,99462.94
2019-03-09T07:34:29.100Z,99450.89
2019-03-09T07:37:03.372Z,99452.02
2019-03-09T07:39:37.597Z,99453.11
2019-03-09T07:42:11.928Z,99450.16
2019-03-09T07:44:46.452Z,99447.42
2019-03-09T07:47:20.878Z,99445.96
2019-03-09T07:49:55.049Z,99441.12
2019-03-09T07:52:39.959Z,99438.70
2019-03-09T07:55:15.736Z,99433.99
2019-03-09T07:57:50.146Z,99434.81
2019-03-09T08:00:24.819Z,99431.03
2019-03-09T08:02:59.378Z,99424.52
2019-03-09T08:05:35.975Z,99419.60
2019-03-09T08:08:10.342Z,99417.39
2019-03-09T08:10:44.451Z,99408.69
2019-03-09T08:13:18.981Z,99412.47
2019-03-09T08:15:52.980Z,99400.78
2019-03-09T08:18:27.477Z,99395.63
2019-03-09T08:21:01.635Z,99389.94
2019-03-09T08:23:36.027Z,99381.21
2019-03-09T08:26:10.245Z,99379.34
2019-03-09T08:28:44.563Z,99381.30
2019-03-09T08:31:18.831Z,99369.01
2019-03-09T08:33:53.190Z,99366.75
2019-03-09T08:36:27.721Z,99365.06
2019-03-09T08:39:02.063Z,99360.47
2019-03-09T08:41:37.785Z,99364.02
2019-03-09T08:44:13.296Z,99363.47
2019-03-09T08:46:47.482Z,99361.28
2019-03-09T08:49:21.859Z,99357.58
2019-03-09T08:51:56.125Z,99352.40
2019-03-09T08:54:30.616Z,99353.77
2019-03-09T08:57:05.885Z,99340.20
2019-03-09T08:59:40.325Z,99343.23
2019-03-09T09:02:14.451Z,99337.54
2019-03-09T09:04:48.521Z,99335.94
2019-03-09T09:07:22.800Z,99334.03
2019-03-09T09:09:57.205Z,99329.42
2019-03-09T09:12:31.339Z,99325.92
2019-03-09T09:15:06.092Z,99323.57
2019-03-09T09:17:40.680Z,99323.73
2019-03-09T09:20:17.293Z,99313.63
2019-03-09T09:22:51.604Z,99315.62
2019-03-09T09:25:25.853Z,99306.58
2019-03-09T09:28:00.554Z,99303.33
2019-03-09T09:30:34.825Z,99301.42
2019-03-09T09:33:09.324Z,99301.12
2019-03-09T09:35:43.587Z,99296.74
2019-03-09T09:38:18.133Z,99297.88
2019-03-09T09:40:52.498Z,99291.09
2019-03-09T09:43:26.806Z,99293.30
2019-03-09T09:46:01.060Z,99287.47
2019-03-09T09:48:35.528Z,99284.57
2019-03-09T09:51:10.437Z,99280.41
2019-03-09T09:53:45.232Z,99282.38
2019-03-09T09:56:21.660Z,99286.79
2019-03-09T09:58:55.769Z,99284.57
2019-03-09T10:01:30.149Z,99286.83
2019-03-09T10:04:05.898Z,99289.87
2019-03-09T10:06:40.336Z,99288.34
2019-03-09T10:09:14.759Z,99279.84
2019-03-09T10:11:48.812Z,99277.27
2019-03-09T10:14:22.971Z,99286.31
2019-03-09T10:16:58.368Z,99284.72
2019-03-09T10:19:33.834Z,99280.93
2019-03-09T10:22:08.136Z,99280.97
2019-03-09T10:24:46.214Z,99285.17
2019-03-09T10:27:20.432Z,99288.34
2019-03-09T10:29:54.524Z,99281.07
2019-03-09T10:32:28.561Z,99279.91
2019-03-09T10:35:02.615Z,99281.07
2019-03-09T10:37:36.968Z,99286.06
2019-03-09T10:40:11.421Z,99286.60
2019-03-09T10:42:46.066Z,99277.63
2019-03-09T10:45:20.629Z,99283.47
2019-03-09T10:47:54.880Z,99280.98
2019-03-09T10:50:32.219Z,99277.46
2019-03-09T10:53:08.332Z,99281.05
2019-03-09T10:55:45.871Z,99280.20
2019-03-09T10:58:21.195Z,99275.34
2019-03-09T11:00:55.315Z,99272.62
2019-03-09T11:03:29.507Z,99276.23
2019-03-09T11:06:04.086Z,99277.06
2019-03-09T11:08:38.423Z,99278.42
2019-03-09T11:11:12.632Z,99276.30
2019-03-09T11:13:51.835Z,99278.97
2019-03-09T11:16:23.130Z,99278.80
2019-03-09T11:18:57.498Z,99277.44
2019-03-09T11:21:31.567Z,99282.05
2019-03-09T11:24:06.180Z,99287.30
2019-03-09T11:26:40.590Z,99282.66
2019-03-09T11:29:14.825Z,99287.41
2019-03-09T11:31:50.196Z,99285.22
2019-03-09T11:34:24.638Z,99290.69
2019-03-09T11:36:58.793Z,99285.80
2019-03-09T11:39:32.931Z,99288.84
2019-03-09T11:42:08.563Z,99290.52
2019-03-09T11:44:42.830Z,99291.09
2019-03-09T11:47:17.021Z,99294.30
2019-03-09T11:49:51.419Z,99298.78
2019-03-09T11:52:25.531Z,99294.38
2019-03-09T11:54:59.663Z,99301.52
2019-03-09T11:57:33.969Z,99300.66
2019-03-09T12:00:08.791Z,99308.27
2019-03-09T12:02:42.981Z,99312.64
2019-03-09T12:05:17.320Z,99318.72
2019-03-09T12:07:51.371Z,99317.59
2019-03-09T12:10:25.615Z,99329.41
2019-03-09T12:12:59.622Z,99333.81
2019-03-09T12:15:33.935Z,99336.83
2019-03-09T12:18:10.047Z,99335.46
2019-03-09T12:20:44.368Z,99342.09
2019-03-09T12:23:23.842Z,99345.70
2019-03-09T12:25:58.117Z,99347.66
2019-03-09T12:28:32.385Z,99353.42
2019-03-09T12:31:06.733Z,99350.15
2019-03-09T12:33:41.083Z,99358.48
2019-03-09T12:36:15.363Z,99359.28
2019-03-09T12:38:49.419Z,99366.72
2019-03-09T12:41:23.811Z,99365.75
2019-03-09T12:43:57.753Z,99372.22
2019-03-09T12:46:32.066Z,99374.34
2019-03-09T12:49:06.436Z,99375.94
2019-03-09T12:51:40.657Z,99385.73
2019-03-09T12:54:14.974Z,99384.09
2019-03-09T12:56:50.225Z,99389.23
2019-03-09T12:59:24.494Z,99394.16
2019-03-09T13:01:58.718Z,99394.70
2019-03-09T13:04:32.828Z,99397.13
2019-03-09T13:07:07.120Z,99393.02
2019-03-09T13:09:41.148Z,99401.22
2019-03-09T13:12:16.403Z,99398.80
2019-03-09T13:14:50.518Z,99401.22
2019-03-09T13:17:24.900Z,99400.88
2019-03-09T13:19:59.367Z,99408.78
2019-03-09T13:22:33.590Z,99408.48
2019-03-09T13:25:08.060Z,99411.75
2019-03-09T13:27:42.245Z,99415.61
2019-03-09T13:30:20.858Z,99423.19
2019-03-09T13:32:56.289Z,99429.19
2019-03-09T13:35:30.562Z,99419.63
2019-03-09T13:38:04.783Z,99421.82
2019-03-09T13:40:39.234Z,99423.73
2019-03-09T13:43:13.395Z,99429.19
2019-03-09T13:45:47.706Z,99436.33
2019-03-09T13:48:24.159Z,99436.33
2019-03-09T13:51:00.482Z,99441.25
2019-03-09T13:53:35.115Z,99446.39
2019-03-09T13:56:09.349Z,99444.20
2019-03-09T13:58:43.843Z,99446.39
2019-03-09T14:01:18.186Z,99448.07
2019-03-09T14:03:52.802Z,99440.66
2019-03-09T14:06:27.360Z,99436.84
2019-03-09T14:09:01.676Z,99451.86
2019-03-09T14:11:37.380Z,99450.26
2019-03-09T14:14:12.075Z,99445.34
2019-03-09T14:16:46.327Z,99453.77
2019-03-09T14:19:21.792Z,99454.35
2019-03-09T14:21:56.288Z,99458.22
2019-03-09T14:24:30.629Z,99461.18
2019-03-09T14:27:05.353Z,99462.86
2019-03-09T14:29:39.953Z,99465.28
2019-03-09T14:32:14.561Z,99466.13
2019-03-09T14:34:48.945Z,99472.41
2019-03-09T14:37:23.292Z,99474.83
2019-03-09T14:39:57.671Z,99478.70
2019-03-09T14:42:31.981Z,99478.41
2019-03-09T14:45:06.305Z,99481.97
2019-03-09T14:47:40.629Z,99484.70
2019-03-09T14:50:15.443Z,99489.63
2019-03-09T14:52:49.836Z,99490.98
2019-03-09T14:55:24.343Z,99498.89
2019-03-09T14:57:58.580Z,99505.03
2019-03-09T15:00:32.905Z,99506.83
2019-03-09T15:03:07.719Z,99508.20
2019-03-09T15:05:41.862Z,99510.99
2019-03-09T15:08:16.145Z,99514.74
2019-03-09T15:10:50.449Z,99521.85
2019-03-09T15:13:25.702Z,99524.66
2019-03-09T15:15:59.890Z,99527.32
2019-03-09T15:18:34.050Z,99534.39
2019-03-09T15:21:08.434Z,99531.56
2019-03-09T15:23:43.702Z,99536.89
2019-03-09T15:26:18.411Z,99539.62
2019-03-09T15:28:52.544Z,99545.63
2019-03-09T15:31:27.898Z,99555.19
2019-03-09T15:34:02.466Z,99559.45
2019-03-09T15:36:36.965Z,99564.83
2019-03-09T15:39:11.514Z,99566.04
2019-03-09T15:41:48.093Z,99568.19
2019-03-09T15:44:22.787Z,99572.72
2019-03-09T15:46:57.142Z,99574.09
2019-03-09T15:49:31.691Z,99571.36
2019-03-09T15:52:06.078Z,99564.83
2019-03-09T15:54:40.551Z,99575.95
2019-03-09T15:57:16.051Z,99575.23
2019-03-09T15:59:50.078Z,99576.60
2019-03-09T16:02:25.635Z,99580.13
2019-03-09T16:04:59.965Z,99577.97
2019-03-09T16:07:35.598Z,99577.08
2019-03-09T16:10:10.652Z,99574.25
2019-03-09T16:12:45.194Z,99584.53
2019-03-09T16:15:19.714Z,99578.89
2019-03-09T16:17:54.264Z,99573.27
2019-03-09T16:20:30.482Z,99575.14
2019-03-09T16:23:04.641Z,99581.67
2019-03-09T16:25:39.059Z,99579.34
2019-03-09T16:28:14.293Z,99581.87
2019-03-09T16:30:48.572Z,99577.53
2019-03-09T16:33:22.830Z,99578.42
2019-03-09T16:35:57.065Z,99573.27
2019-03-09T16:38:34.426Z,99575.92
2019-03-09T16:41:09.128Z,99568.38
2019-03-09T16:43:43.241Z,99569.58
2019-03-09T16:46:17.687Z,99575.36
2019-03-09T16:48:53.222Z,99569.27
2019-03-09T16:51:27.450Z,99573.77
2019-03-09T16:57:05.087Z,99569.41
2019-03-09T16:59:39.558Z,99567.50
2019-03-09T17:02:13.846Z,99562.19
2019-03-09T17:04:48.075Z,99570.47
2019-03-09T17:07:22.277Z,99574.27
2019-03-09T17:09:56.388Z,99572.48
2019-03-09T17:12:30.915Z,99573.53
2019-03-09T17:15:05.008Z,99565.55
2019-03-09T17:17:39.348Z,99568.16
2019-03-09T17:20:13.994Z,99565.07
2019-03-09T17:22:48.375Z,99567.70
2019-03-09T17:25:22.623Z,99564.66
2019-03-09T17:27:57.915Z,99567.88
2019-03-09T17:30:31.948Z,99570.23
2019-03-09T17:33:06.572Z,99564.02
2019-03-09T17:35:41.122Z,99564.66
2019-03-09T17:38:15.660Z,99562.52
2019-03-09T17:40:50.001Z,99570.24
2019-03-09T17:43:25.416Z,99563.12
2019-03-09T17:45:59.909Z,99566.34
2019-03-09T17:48:34.162Z,99556.77
2019-03-09T17:51:08.521Z,99556.52
2019-03-09T17:53:42.748Z,99559.05
2019-03-09T17:56:17.077Z,99556.31
2019-03-09T17:58:51.148Z,99554.05
2019-03-09T18:01:25.299Z,99556.31
2019-03-09T18:03:59.626Z,99555.56
2019-03-09T18:06:34.072Z,99557.20
2019-03-09T18:09:09.726Z,99553.41
2019-03-09T18:11:43.988Z,99552.59
2019-03-09T18:14:18.390Z,99549.17
2019-03-09T18:16:55.261Z,99551.16
2019-03-09T18:19:30.126Z,99555.26
2019-03-09T18:22:04.259Z,99554.20
2019-03-09T18:24:38.766Z,99560.25
2019-03-09T18:27:13.939Z,99549.31
2019-03-09T18:29:48.125Z,99545.75
2019-03-09T18:32:22.467Z,99550.98
2019-03-09T18:34:56.646Z,99548.08
2019-03-09T18:37:30.717Z,99548.14
2019-03-09T18:40:04.784Z,99546.98
2019-03-09T18:42:38.921Z,99542.13
2019-03-09T18:45:14.406Z,99543.73
2019-03-09T18:47:48.421Z,99539.32
2019-03-09T18:50:22.690Z,99546.70
2019-03-09T18:52:57.062Z,99544.63
2019-03-09T18:55:32.172Z,99539.39
2019-03-09T18:58:06.583Z,99538.50
2019-03-09T19:00:41.884Z,99533.78
2019-03-09T19:03:16.303Z,99534.33
2019-03-09T19:05:50.673Z,99525.23
2019-03-09T19:08:24.790Z,99526.12
2019-03-09T19:10:59.057Z,99516.47
2019-03-09T19:13:35.552Z,99514.28
2019-03-09T19:16:11.487Z,99512.06
2019-03-09T19:18:45.703Z,99508.75
2019-03-09T19:21:19.798Z,99520.27
2019-03-09T19:23:54.100Z,99517.78
2019-03-09T19:26:28.095Z,99517.53
2019-03-09T19:29:02.571Z,99523.80
2019-03-09T19:31:36.913Z,99521.87
2019-03-09T19:34:11.138Z,99514.77
2019-03-09T19:36:45.336Z,99507.62
2019-03-09T19:39:19.540Z,99512.06
2019-03-09T19:41:53.650Z,99508.44
2019-03-09T19:44:27.906Z,99507.38
2019-03-09T19:47:02.422Z,99510.11
2019-03-09T19:49:37.467Z,99509.23
2019-03-09T19:52:11.996Z,99497.02
2019-03-09T19:54:46.326Z,99492.64
2019-03-09T19:57:20.501Z,99495.65
2019-03-09T19:59:54.805Z,99488.47
2019-03-09T20:02:29.272Z,99488.70
2019-03-09T20:05:04.776Z,99490.83
2019-03-09T20:07:39.107Z,99487.75
2019-03-09T20:10:14.534Z,99485.36
2019-03-09T20:12:48.789Z,99477.94
2019-03-09T20:15:23.364Z,99479.82
2019-03-09T20:17:57.696Z,99478.69
2019-03-09T20:20:31.919Z,99480.61
2019-03-09T20:23:06.206Z,99482.21
2019-03-09T20:25:40.243Z,99473.70
2019-03-09T20:28:14.508Z,99474.80
2019-03-09T20:30:48.520Z,99471.81
2019-03-09T20:33:23.029Z,99480.53
2019-03-09T20:35:57.392Z,99477.52
2019-03-09T20:38:32.585Z,99475.85
2019-03-09T20:41:07.823Z,99465.16
2019-03-09T20:43:42.032Z,99457.53
2019-03-09T20:46:16.388Z,99457.19
2019-03-09T20:48:50.549Z,99449.25
2019-03-09T20:51:24.818Z,99443.75
2019-03-09T20:53:59.031Z,99445.16
2019-03-09T20:56:33.954Z,99437.49
2019-03-09T20:59:08.206Z,99430.08
2019-03-09T21:01:43.368Z,99431.65
2019-03-09T21:04:17.645Z,99421.56
2019-03-09T21:06:51.855Z,99418.83
2019-03-09T21:09:25.965Z,99419.65
2019-03-09T21:12:00.302Z,99428.40
2019-03-09T21:14:34.350Z,99417.77
2019-03-09T21:17:08.580Z,99416.40
2019-03-09T21:19:42.874Z,99407.83
2019-03-09T21:22:17.234Z,99407.27
2019-03-09T21:24:51.285Z,99410.25
2019-03-09T21:27:25.475Z,99402.90
2019-03-09T21:29:59.527Z,99390.83
2019-03-09T21:32:33.782Z,99393.56
2019-03-09T21:35:08.228Z,99393.27
2019-03-09T21:37:42.591Z,99392.14
2019-03-09T21:40:16.913Z,99387.18
2019-03-09T21:42:51.387Z,99391.05
2019-03-09T21:45:25.630Z,99395.11
2019-03-09T21:48:01.017Z,99391.01
2019-03-09T21:50:35.197Z,99391.25
2019-03-09T21:53:10.440Z,99385.78
2019-03-09T21:55:44.873Z,99375.91
2019-03-09T21:58:19.069Z,99371.56
2019-03-09T22:00:53.447Z,99368.83
2019-03-09T22:03:27.544Z,99365.55
2019-03-09T22:06:06.011Z,99362.75
2019-03-09T22:08:37.909Z,99357.27
2019-03-09T22:11:12.339Z,99354.27
2019-03-09T22:13:46.271Z,99360.31
2019-03-09T22:16:20.764Z,99353.66
2019-03-09T22:18:54.957Z,99349.86
2019-03-09T22:21:29.192Z,99350.41
2019-03-09T22:24:03.407Z,99350.92
2019-03-09T22:26:37.346Z,99353.08
2019-03-09T22:29:13.641Z,99360.49
2019-03-09T22:31:47.638Z,99356.88
2019-03-09T22:34:21.707Z,99353.37
2019-03-09T22:36:56.390Z,99361.28
2019-03-09T22:39:30.508Z,99368.36
2019-03-09T22:42:04.761Z,99375.70
2019-03-09T22:44:38.970Z,99380.05
2019-03-09T22:47:13.151Z,99374.88
2019-03-09T22:49:47.229Z,99378.74
2019-03-09T22:52:21.364Z,99387.73
2019-03-09T22:54:55.734Z,99385.00
2019-03-09T22:57:30.210Z,99385.75
2019-03-09T23:00:04.258Z,99384.08
2019-03-09T23:02:40.138Z,99382.44
2019-03-09T23:05:14.302Z,99388.80
2019-03-09T23:07:49.740Z,99391.77
2019-03-09T23:10:25.180Z,99390.64
2019-03-09T23:12:59.562Z,99393.38
2019-03-09T23:15:35.580Z,99400.48
2019-03-09T23:18:10.068Z,99404.78
2019-03-09T23:20:44.471Z,99411.89
2019-03-09T23:23:18.789Z,99412.75
2019-03-09T23:25:53.048Z,99418.45
2019-03-09T23:28:27.316Z,99414.94
2019-03-09T23:31:03.759Z,99409.91
2019-03-09T23:33:38.033Z,99412.65
2019-03-09T23:36:13.627Z,99409.09
2019-03-09T23:38:48.080Z,99407.94
2019-03-09T23:41:22.622Z,99409.02
2019-03-09T23:43:56.924Z,99421.33
2019-03-09T23:46:31.155Z,99421.84
2019-03-09T23:49:05.398Z,99429.22
2019-03-09T23:51:39.562Z,99433.32
2019-03-09T23:54:13.647Z,99431.13
2019-03-09T23:56:47.738Z,99431.06
2019-03-09T23:59:21.991Z,99430.00
